Gardenville, PA (18926)

12:25 PM EDT on August 23, 2014 (GMT -0400)
Coldspring | Change Station
CLOSE
Current Station
Personal Weather Station
Location: Doylestown, PA
Elevation: 354 ft
Nearby Weather Stations

Elev 354 ft 40.35 °N, 75.10 °W | Updated 25 seconds ago

Light Rain
Light Rain
68.5 °F
Feels Like 68.5 °F
N
0.0
Wind Variable Wind from NE
Gusts 5.0 mph

Today
High -- | Low -- °F
--% Chance of Precip.
Yesterday
High -- | Low -- °F
Precip. -- in
6:19 AM 7:46 PM
Waning Crescent, 3% visible
Pressure 30.08 in
Visibility 10.0 miles
Clouds Few 5500 ft
Overcast 7000 ft
Dew Point 65 °F
Humidity 89%
Rainfall 0.23 in
Snow Depth Not available.
UV 3 out of 12
Pollen 5.40 out of 12
Air Quality Not available.
Flu Activity Not available.
METAR KDYL 231554Z AUTO 03005KT 10SM -RA FEW055 OVC070 19/19 A3009 RMK AO2 SLP186 P0003 T01940189

More Conditions Fewer Conditions

Pressure 30.08 in
Visibility 10.0 miles
Clouds Few 5500 ft
Overcast 7000 ft
Dew Point 65 °F
Humidity 89%
Rainfall 0.23 in
Snow Depth Not available.
UV 3 out of 12
Pollen 5.40 out of 12
Air Quality Not available.
Flu Activity Not available.
METAR KDYL 231554Z AUTO 03005KT 10SM -RA FEW055 OVC070 19/19 A3009 RMK AO2 SLP186 P0003 T01940189

More Conditions Fewer Conditions

Nowcast | as of 12:24 PM EDT on August 23, 2014

At 1221 PM...a broad area of showers continues to move southeastward from the Poconos toward Trenton and Atlantic City. Meanwhile...a narrow band of showers has also formed along the New Jersey shore near Forked River...and is moving southwestward toward Marlton Lakes. Any shower may contain embedded heavier downpours. Rainfall up to around one-tenth of an inch is possible over the next hour.

×

10-Day Weather Forecast

Almanac

Astronomy

Aug. 23, 2014 Rise Set
Actual Time 6:19 AM EDT 7:46 PM EDT
Civil Twilight 5:50 AM EDT 8:14 PM EDT
Nautical Twilight 5:16 AM EDT 8:48 PM EDT
Astronomical Twilight 4:39 AM EDT 9:25 PM EDT
Moon 4:32 AM EDT 6:29 PM EDT
Length of Visible Light 14h 24m
Length of Day
13h 27m
Tomorrow will be 2m 28s shorter.
Waning Crescent, 3% of the Moon is Illuminated
Today
Waning Crescent
Aug 25
New
Sep 2
First Quarter
Sep 8
Full
Sep 15
Last Quarter

Today's Extremes

State Highs State Lows

Community

WunderPhotos

Upload Photos

1,746,521 photos uploaded!

WunderBlogs® & News

By Dr. Jeff Masters
Director of Meteorology, Weather Underground
By Kari Strenfel
Meteorologist, Weather Underground
By Christopher C. Burt
Weather Historian, Weather Underground
August 23, 2014
August 23, 2014
August 23, 2014

Nearby

Snow Depth

Station Depth Elevation
No new snow has been reported.

Earthquake Activity

City Distance Mag. Time & Date
No recent earthquake activity has been reported nearby.
Minimum magnitude displayed is 2.5.

Coastal Water Temperatures

Place Temperature
No Stations Reporting

Nearby Weather Stations